Elation — 3FOC5 — position and weather

sailwx.info

Track history (hours):
 
Tides and Currents Weather Stations Pressure Air Temp Water Temp Dewpoint Dewpoint Depression Visibility Wind Speed Wind Dir Waves Ship Positions

Elation

Operator: Carnival Cruise Lines

Last reported at 2015-May-02 21:12 UTC. Time now 2015-May-04 22:09 UTC.
Position N 29°56' W 090°04'.

Type: Ship. MMSI: 355831000.

Date/timePositionNaut miles runAvg speedWind from/ knotsBaromVisibWave heightAir tempDewpointWater temp
2015-May-02 21:12N 29°56' W 090°04'0 0.0
2015-May-02 20:30N 29°56' W 090°04'0 0.0
2015-May-02 17:17N 29°56' W 090°04'0 0.0
2015-May-02 15:16N 29°56' W 090°04'0 0.0
2015-May-02 12:31N 29°57' W 090°04'5 5.4
2015-May-02 11:32N 29°55' W 089°58'21410.4
2015-May-01 15:00N 26°24' W 089°18'   360 / 131012.410.8 0.523.417.425.4
2015-Apr-28 12:00N 27°06' W 088°42'17913.2 090 / 401002.1 5.4 3.522.120.728.1
2015-Apr-27 22:27N 29°54' W 089°54'8 1.6
2015-Apr-27 17:16N 29°56' W 090°04'6 1.1
2015-Apr-27 11:33N 29°55' W 089°57'5 4.3
2015-Apr-27 10:29N 29°51' W 089°59'7 7.4
2015-Apr-27 09:31N 29°44' W 090°00'53 7.6
2015-Apr-27 02:32N 29°07' W 089°16'  
2015-Apr-23 23:13N 29°52' W 089°55'9 1.0
2015-Apr-23 14:12N 29°56' W 090°04'0 0.1
2015-Apr-23 12:20N 29°57' W 090°04'4 3.5
2015-Apr-23 11:19N 29°56' W 089°60'  
Track history (hours):
 
Tides and Currents Weather Stations Pressure Air Temp Water Temp Dewpoint Dewpoint Depression Visibility Wind Speed Wind Dir Waves Ship Positions

Elation

Operator: Carnival Cruise Lines

Last reported at 2015-May-02 21:12 UTC. Time now 2015-May-04 22:09 UTC.
Position N 29°56' W 090°04'.

Type: Ship. MMSI: 355831000.

Date/timePositionNaut miles runAvg speedWind from/ knotsBaromVisibWave heightAir tempDewpointWater temp
2015-May-02 21:12N 29°56' W 090°04'0 0.0
2015-May-02 20:30N 29°56' W 090°04'0 0.0
2015-May-02 17:17N 29°56' W 090°04'0 0.0
2015-May-02 15:16N 29°56' W 090°04'0 0.0
2015-May-02 12:31N 29°57' W 090°04'5 5.4
2015-May-02 11:32N 29°55' W 089°58'21410.4
2015-May-01 15:00N 26°24' W 089°18'   360 / 131012.410.8 0.523.417.425.4
2015-Apr-28 12:00N 27°06' W 088°42'17913.2 090 / 401002.1 5.4 3.522.120.728.1
2015-Apr-27 22:27N 29°54' W 089°54'8 1.6
2015-Apr-27 17:16N 29°56' W 090°04'6 1.1
2015-Apr-27 11:33N 29°55' W 089°57'5 4.3
2015-Apr-27 10:29N 29°51' W 089°59'7 7.4
2015-Apr-27 09:31N 29°44' W 090°00'53 7.6
2015-Apr-27 02:32N 29°07' W 089°16'  
2015-Apr-23 23:13N 29°52' W 089°55'9 1.0
2015-Apr-23 14:12N 29°56' W 090°04'0 0.1
2015-Apr-23 12:20N 29°57' W 090°04'4 3.5
2015-Apr-23 11:19N 29°56' W 089°60'  

Dump ship's entire track history